Terminal Aerodrome Forecast
Issued by NWS

Home | Current Version | Previous Version | Text Only | Print | Product List | Glossary On
Versions: 1 2 3 4 5 6 7 8 9 10 11 12 13 14 15 16 17 18 19 20 21 22 23 24 25 26 27 28 29 30 31 32 33 34 35 36 37 38 39 40 41 42 43 44 45 46 47 48 49 50
000
FTUS46 KLOX 231134
TAFLAX
TAF
KLAX 231134Z 2312/2418 25016KT P6SM VCSH SCT025 BKN060
     FM231400 24014KT P6SM VCTS SCT015CB OVC040
     FM240000 26012KT P6SM -SHRA BKN050
     FM240300 VRB03KT P6SM BKN050
     FM240900 32010KT P6SM BKN100
     FM241300 32005KT P6SM SCT020 BKN040=

USA.gov is the U.S. government's official web portal to all federal, state and local government web resources and services.